עמוד ראשי
METAR-TAF:

METAR-TAF

שדות תעופה :

דיארבקיר, טורקיה

קו רוחב: 37-53N, קו אורך: 040-11E, גובה: 686מטר

תצפית מזג אוויר נוכחית

הדו"ח נערך לפני 49דקות, בשעה 12:50 UTC
רוח 6קשר מכיוון מזרח, משתנה בין צפון ו דרום-מזרח
טמפרטורת 39 צלסיוס
לחות 15%
לחץ 1003 hPa
ראות 10 קילומטר או יותר
מעט עננים בגובה 4000רגל
עננים פזורים בגובה 10000רגל

METAR: LTCC 181250Z 08006KT 360V130 9999 FEW040 SCT100 39/08 Q1003 NOSIG RMK RWY16 04007KT 350V090 2CU040 3AC100

זמן: 16:39 (13:39 UTC)

תחזית

הדו"ח נערך לפני 2 שעות ו 59דקות, בשעה 10:40 UTC
תחזית בתוקף מ 18 ב 12 UTC עד 19 ב 12 UTC
רוח 6קשר מכיוון מערב/דרום-מערב
ראות 10 קילומטר או יותר
מעט עננים בגובה 4000רגל
עננים פזורים בגובה 10000רגל
יעשה מ
18 ב 15 UTC עד 18 ב 18 UTC
רוח 10קשר מכיוון צפון
ראות 10 קילומטר או יותר
ללא עננים שבסיסם נמוך מ 5000 רגל או קומולונימבוס

TAF: LTCC 181040Z 1812/1912 24006KT 9999 FEW040 SCT100 BECMG 1815/1818 35010KT CAVOK

תצפיות ותחזיות מזג אוויר לגבי יותר מ- 4,000 שדות תעופה ברחבי העולם. דוחות METAR ו- TAF.

התחנות הזמינות מסומנות בנקודות צהובות ואדומות על גבי המפה.

העבר את העכבר לנקודה הצבעונית על מנת לראות את שם התחנה.

לאחר מכן, לחץ כדי לראות את תוכן ואת תחזיות מזג האוויר.

כדי לשנות את המפה: לחץ על הכפתורים הירוקים עם הפלוס השחור כדי להתקרב; על הכפתור הירוק עם המקף כדי להתרחק; או בחיצים הירוקים למפות סמוכות.


METAR-TAF: